Time;durP1;ratioP1;P1;durP2;ratioP2;P2;SDS_P1;SDS_P2;PMS_P1;PMS_P2;Temp;Humidity;BMP_temperature;BMP_pressure;BME280_temperature;BME280_humidity;BME280_pressure;Samples;Min_cycle;Max_cycle;Signal;HPM_P1;HPM_P2
2022/10/14 00:02:15;;;;;;;6.82;2.05;;;;;;;11.74;84.52;97451.41;5027748;28;20080;-62
2022/10/14 00:04:41;;;;;;;3.95;1.60;;;;;;;11.63;84.88;97432.94;5027408;28;20532;-61
2022/10/14 00:07:08;;;;;;;3.78;1.98;;;;;;;11.66;85.06;97452.44;5027417;28;20324;-61
2022/10/14 00:09:35;;;;;;;4.03;2.05;;;;;;;11.68;85.03;97454.84;5027195;28;20504;-62
2022/10/14 00:12:02;;;;;;;4.80;1.70;;;;;;;11.47;85.97;97426.66;5027060;28;20595;-62
2022/10/14 00:14:28;;;;;;;3.88;1.75;;;;;;;11.32;86.48;97424.75;5027340;28;20357;-63
2022/10/14 00:16:55;;;;;;;3.80;1.77;;;;;;;11.37;86.25;97410.59;5027074;28;20050;-62
2022/10/14 00:19:22;;;;;;;5.63;1.77;;;;;;;11.65;86.00;97438.94;5025672;28;20140;-63
2022/10/14 00:21:48;;;;;;;3.28;1.58;;;;;;;11.53;85.55;97412.13;5027069;28;20164;-61
2022/10/14 00:24:16;;;;;;;3.88;1.70;;;;;;;11.57;86.04;97420.50;5027414;28;20057;-60
2022/10/14 00:26:42;;;;;;;5.10;1.40;;;;;;;11.60;86.29;97430.88;5026794;28;20566;-60
2022/10/14 00:29:16;;;;;;;3.35;1.45;;;;;;;11.27;86.43;97411.97;5025750;28;20096;-61
2022/10/14 00:31:42;;;;;;;2.83;1.38;;;;;;;11.48;86.67;97417.94;5027056;28;20123;-61
2022/10/14 00:34:11;;;;;;;5.10;1.40;;;;;;;11.53;87.47;97425.16;5027293;28;20081;-62
2022/10/14 00:36:39;;;;;;;5.53;1.83;;;;;;;11.48;88.21;97428.25;5025488;28;20060;-61
2022/10/14 00:39:06;;;;;;;5.10;2.03;;;;;;;11.43;88.76;97423.00;5027346;28;20539;-61
2022/10/14 00:41:34;;;;;;;3.17;1.55;;;;;;;11.39;89.45;97419.34;5026911;28;20530;-61
2022/10/14 00:44:10;;;;;;;2.38;1.40;;;;;;;11.46;88.93;97416.72;5024983;28;20060;-61
2022/10/14 00:46:47;;;;;;;3.00;1.65;;;;;;;11.42;88.42;97396.44;5025592;28;20062;-62
2022/10/14 00:49:18;;;;;;;4.05;1.45;;;;;;;11.41;87.90;97395.63;5024236;28;20053;-62
2022/10/14 00:52:03;;;;;;;2.65;1.38;;;;;;;11.56;87.34;97407.78;5026698;28;20160;-62
2022/10/14 00:54:44;;;;;;;11.45;1.50;;;;;;;11.51;87.39;97402.53;5025378;28;20084;-60
2022/10/14 00:57:11;;;;;;;2.83;1.65;;;;;;;11.16;87.33;97346.41;5026699;28;20045;-61
2022/10/14 00:59:37;;;;;;;4.32;1.48;;;;;;;11.43;87.95;97398.81;5026442;28;20137;-63
2022/10/14 01:02:04;;;;;;;5.45;1.67;;;;;;;10.91;88.94;97325.72;5025766;28;20089;-62
2022/10/14 01:04:32;;;;;;;4.13;1.55;;;;;;;11.28;88.50;97380.31;5025120;28;20538;-60
2022/10/14 01:07:03;;;;;;;3.78;1.25;;;;;;;11.00;88.55;97317.97;5025023;28;20116;-62
2022/10/14 01:09:37;;;;;;;6.18;1.50;;;;;;;11.37;89.44;97397.53;5026621;28;20123;-61
2022/10/14 01:12:07;;;;;;;3.70;1.60;;;;;;;11.25;88.98;97388.56;5025953;28;20054;-63
2022/10/14 01:15:04;;;;;;;2.08;1.55;;;;;;;11.22;88.76;97384.56;5024845;28;20050;-61
2022/10/14 01:17:59;;;;;;;2.40;1.50;;;;;;;11.19;88.86;97384.50;5026085;28;20486;-63
2022/10/14 01:21:08;;;;;;;3.97;1.48;;;;;;;11.11;89.40;97380.75;5025756;28;20076;-62
2022/10/14 01:23:56;;;;;;;3.00;1.75;;;;;;;11.07;89.88;97379.88;5026235;28;20504;-62
2022/10/14 01:26:25;;;;;;;3.45;1.70;;;;;;;11.02;90.55;97382.16;5024748;28;20133;-63
2022/10/14 01:29:10;;;;;;;2.22;1.10;;;;;;;11.06;90.56;97377.47;5026386;28;20136;-61
2022/10/14 01:31:43;;;;;;;1.77;1.05;;;;;;;11.02;91.16;97382.16;5035354;28;20072;-61
2022/10/14 01:34:14;;;;;;;3.33;1.15;;;;;;;10.91;91.64;97378.38;5051039;28;20534;-63
2022/10/14 01:36:50;;;;;;;4.07;1.42;;;;;;;10.81;91.72;97362.31;5045528;28;20473;-62
2022/10/14 01:39:22;;;;;;;2.95;1.50;;;;;;;8.51;91.34;96987.66;5045491;28;20074;-61
2022/10/14 01:42:02;;;;;;;1.27;0.90;;;;;;;10.86;91.44;97345.41;5045265;28;20076;-61
2022/10/14 01:44:31;;;;;;;1.55;0.93;;;;;;;10.53;90.26;97304.31;5043963;28;20361;-60
2022/10/14 01:47:01;;;;;;;2.75;0.95;;;;;;;10.97;90.06;97346.41;5045740;28;20048;-61
2022/10/14 01:49:40;;;;;;;1.58;1.20;;;;;;;10.84;89.21;97311.69;5045173;28;20083;-63
2022/10/14 01:52:21;;;;;;;4.80;1.10;;;;;;;10.85;88.93;97327.16;5045742;28;20447;-61
2022/10/14 01:54:52;;;;;;;5.00;1.35;;;;;;;11.05;89.21;97364.81;5045225;28;20057;-61
2022/10/14 01:57:23;;;;;;;2.83;1.20;;;;;;;10.99;89.98;97366.25;5043648;28;20080;-62
2022/10/14 01:59:52;;;;;;;2.90;1.30;;;;;;;11.05;89.29;97360.03;5043501;28;20076;-62
2022/10/14 02:02:19;;;;;;;2.33;1.17;;;;;;;8.63;88.79;96984.00;5043771;28;20558;-61
2022/10/14 02:04:46;;;;;;;5.13;1.20;;;;;;;11.00;90.29;97367.88;5045002;28;20053;-61
2022/10/14 02:07:42;;;;;;;2.13;0.98;;;;;;;11.08;90.78;97364.84;5044910;28;21293;-61
2022/10/14 02:10:09;;;;;;;3.03;1.08;;;;;;;11.06;90.94;97369.97;5044062;28;20103;-62
2022/10/14 02:12:46;;;;;;;6.70;1.20;;;;;;;11.05;91.50;97364.81;5045106;28;20057;-61
2022/10/14 02:15:25;;;;;;;1.83;1.00;;;;;;;11.10;91.07;97368.06;5043509;28;20089;-61
2022/10/14 02:18:05;;;;;;;3.10;1.10;;;;;;;11.03;89.91;97361.59;5045121;28;20064;-61
2022/10/14 02:21:02;;;;;;;1.85;1.23;;;;;;;10.96;90.44;97358.66;5044891;28;20052;-62
2022/10/14 02:23:38;;;;;;;1.95;1.02;;;;;;;10.91;90.30;97361.75;5044753;28;20132;-62
2022/10/14 02:26:05;;;;;;;4.47;1.20;;;;;;;10.57;90.20;97317.09;5044645;28;20143;-61
2022/10/14 02:28:33;;;;;;;4.03;1.63;;;;;;;8.10;89.77;96910.94;5044678;28;20049;-61
2022/10/14 02:31:08;;;;;;;4.80;1.85;;;;;;;10.88;90.31;97370.75;5044266;28;20064;-62
2022/10/14 02:33:42;;;;;;;3.47;2.15;;;;;;;10.78;91.15;97360.28;5044552;28;20500;-62
2022/10/14 02:36:10;;;;;;;;;;;;;;;10.75;91.17;97366.53;5043762;28;20084;-61
2022/10/14 02:38:39;;;;;;;17.45;14.30;;;;;;;10.69;91.83;97357.69;5042979;28;20013;-63
2022/10/14 02:41:11;;;;;;;15.15;8.93;;;;;;;10.75;92.07;97433.03;5044066;28;20084;-61
2022/10/14 02:43:38;;;;;;;8.32;5.45;;;;;;;10.61;92.85;97370.59;5042848;28;20581;-62
2022/10/14 02:46:05;;;;;;;5.97;3.67;;;;;;;10.57;93.08;97361.41;5044270;28;20092;-60
2022/10/14 02:48:31;;;;;;;3.60;2.35;;;;;;;10.63;92.47;97365.50;5042866;28;20148;-61
2022/10/14 02:50:58;;;;;;;3.90;2.50;;;;;;;10.28;92.47;97314.88;5042802;28;20053;-62
2022/10/14 02:53:25;;;;;;;4.95;2.75;;;;;;;10.64;91.99;97355.22;5044568;28;20057;-61
2022/10/14 02:55:51;;;;;;;10.25;6.38;;;;;;;10.61;91.95;97345.69;5044273;28;20376;-62
2022/10/14 02:58:18;;;;;;;9.50;4.70;;;;;;;10.40;93.36;97356.28;5044641;28;20132;-61
2022/10/14 03:00:47;;;;;;;6.43;3.90;;;;;;;10.50;93.04;97355.72;5042843;28;20138;-61
2022/10/14 03:03:14;;;;;;;6.75;4.15;;;;;;;10.48;92.60;97346.97;5044418;28;20405;-62
2022/10/14 03:05:42;;;;;;;5.30;3.60;;;;;;;10.23;92.47;97317.91;5043924;28;20077;-60
2022/10/14 03:08:09;;;;;;;5.70;3.03;;;;;;;10.50;92.78;97350.19;5044365;28;20096;-61
2022/10/14 03:10:36;;;;;;;7.25;4.25;;;;;;;9.87;92.93;97254.59;5044001;28;20080;-62
2022/10/14 03:13:03;;;;;;;7.05;4.43;;;;;;;10.43;93.68;97338.16;5047569;28;20146;-61
2022/10/14 03:15:29;;;;;;;11.15;4.65;;;;;;;9.58;93.24;97208.06;5048206;28;20061;-61
2022/10/14 03:17:56;;;;;;;7.85;3.78;;;;;;;10.48;92.56;97346.97;5048438;28;20140;-62
2022/10/14 03:20:22;;;;;;;4.82;3.67;;;;;;;10.41;93.37;97334.94;5048038;28;20053;-61
2022/10/14 03:22:49;;;;;;;5.70;3.25;;;;;;;10.51;92.55;97346.25;5048352;28;20489;-62
2022/10/14 03:25:16;;;;;;;6.03;2.75;;;;;;;10.24;92.40;97302.91;5048041;28;20115;-61
2022/10/14 03:27:42;;;;;;;5.15;1.98;;;;;;;10.47;92.58;97341.78;5048217;28;20139;-61
2022/10/14 03:30:09;;;;;;;3.22;2.15;;;;;;;10.44;92.52;97335.03;5047663;28;20106;-61
2022/10/14 03:32:36;;;;;;;4.22;2.45;;;;;;;9.99;92.85;97276.59;5047475;28;20063;-62
2022/10/14 03:35:03;;;;;;;5.38;1.92;;;;;;;10.36;92.57;97344.34;5047765;28;20118;-64
2022/10/14 03:37:29;;;;;;;4.40;2.15;;;;;;;10.14;94.04;97336.69;5047648;28;20508;-61
2022/10/14 03:39:56;;;;;;;3.63;1.90;;;;;;;10.18;94.24;97339.56;5047554;28;20562;-62
2022/10/14 03:42:22;;;;;;;3.20;1.80;;;;;;;10.21;93.72;97336.84;5046065;28;20080;-63
2022/10/14 03:44:49;;;;;;;1.80;0.95;;;;;;;9.87;93.26;97314.66;5047618;28;20057;-61
2022/10/14 03:47:16;;;;;;;3.88;2.50;;;;;;;9.06;92.88;97153.13;5047680;28;20461;-63
2022/10/14 03:49:42;;;;;;;2.10;1.30;;;;;;;10.17;92.92;97330.44;5047732;28;20045;-61
2022/10/14 03:52:09;;;;;;;2.83;1.42;;;;;;;10.16;93.17;97325.28;5047077;28;20147;-62
2022/10/14 03:54:36;;;;;;;2.15;1.52;;;;;;;10.13;92.93;97331.53;5046410;28;20158;-61
2022/10/14 03:57:02;;;;;;;5.47;2.78;;;;;;;10.07;92.11;97342.06;5047246;28;20077;-63
2022/10/14 03:59:29;;;;;;;5.65;1.52;;;;;;;9.75;93.19;97289.88;5045940;28;20592;-60
2022/10/14 04:01:56;;;;;;;3.13;1.17;;;;;;;9.77;94.81;97321.53;5047404;28;20076;-61
2022/10/14 04:04:22;;;;;;;2.03;1.10;;;;;;;9.66;95.55;97326.00;5047363;28;20053;-60
2022/10/14 04:06:49;;;;;;;4.25;1.45;;;;;;;9.60;96.05;97316.38;5046954;28;20152;-60
2022/10/14 04:09:16;;;;;;;5.93;1.48;;;;;;;8.90;95.11;97192.94;5045935;28;20162;-61
2022/10/14 04:11:43;;;;;;;1.58;1.05;;;;;;;8.85;93.84;97173.91;5045316;28;20128;-61
2022/10/14 04:14:09;;;;;;;3.88;1.33;;;;;;;9.65;94.22;97312.53;5045277;28;20531;-62
2022/10/14 04:16:36;;;;;;;4.68;1.67;;;;;;;9.35;95.14;97276.25;5046901;28;20080;-61
2022/10/14 04:19:02;;;;;;;5.60;2.00;;;;;;;9.65;94.66;97318.88;5047084;28;20502;-63
2022/10/14 04:21:29;;;;;;;2.63;1.10;;;;;;;9.18;95.20;97271.06;5045625;28;20044;-60
2022/10/14 04:23:56;;;;;;;2.58;1.35;;;;;;;9.44;95.75;97296.22;5047197;28;20080;-61
2022/10/14 04:26:22;;;;;;;6.93;2.22;;;;;;;8.59;94.42;97154.28;5046814;28;20099;-61
2022/10/14 04:28:49;;;;;;;2.85;1.48;;;;;;;9.62;94.71;97325.13;5045344;28;20144;-61
2022/10/14 04:31:16;;;;;;;5.05;1.23;;;;;;;8.24;95.61;97109.16;5046538;28;20057;-62
2022/10/14 04:33:42;;;;;;;3.33;1.92;;;;;;;5.64;95.01;96727.16;5046555;28;20057;-61
2022/10/14 04:36:09;;;;;;;9.27;2.50;;;;;;;9.22;96.04;97244.31;5045618;28;20139;-61
2022/10/14 04:38:35;;;;;;;12.38;6.47;;;;;;;9.15;95.66;97199.94;5047282;28;20153;-63
2022/10/14 04:41:02;;;;;;;10.65;4.00;;;;;;;9.60;95.64;97283.19;5046352;28;20079;-61
2022/10/14 04:43:29;;;;;;;17.17;5.68;;;;;;;9.82;95.14;97307.44;5046295;28;20045;-63
2022/10/14 04:45:55;;;;;;;10.15;5.13;;;;;;;9.75;94.24;97312.00;5045098;28;20077;-61
2022/10/14 04:48:22;;;;;;;14.50;5.70;;;;;;;9.76;93.81;97305.28;5046613;28;20522;-63
2022/10/14 04:50:50;;;;;;;15.07;7.93;;;;;;;9.08;92.82;97199.75;5044627;28;20499;-61
2022/10/14 04:53:18;;;;;;;12.65;5.50;;;;;;;9.90;93.49;97319.47;5045333;28;20060;-62
2022/10/14 04:55:48;;;;;;;9.52;3.75;;;;;;;9.27;93.24;97227.47;5045362;28;20053;-62
2022/10/14 04:58:15;;;;;;;12.00;3.53;;;;;;;9.92;93.39;97312.44;5046260;28;20053;-62
2022/10/14 05:00:42;;;;;;;13.55;4.40;;;;;;;9.88;92.81;97300.47;5046185;28;20345;-62
2022/10/14 05:03:09;;;;;;;8.88;5.63;;;;;;;9.45;91.97;97214.91;5046370;28;20151;-63
2022/10/14 05:05:36;;;;;;;8.13;4.18;;;;;;;9.47;91.60;97234.66;5044787;28;20484;-62
2022/10/14 05:08:03;;;;;;;8.23;3.05;;;;;;;9.79;91.56;97243.72;5044786;28;20048;-62
2022/10/14 05:10:30;;;;;;;7.30;1.80;;;;;;;10.30;90.70;97307.03;5045321;28;20045;-62
2022/10/14 05:12:57;;;;;;;5.45;1.15;;;;;;;10.01;90.45;97254.91;5045939;28;20408;-62
2022/10/14 05:15:24;;;;;;;12.38;1.50;;;;;;;10.31;91.53;97308.59;5045959;28;20057;-63
2022/10/14 05:17:51;;;;;;;4.90;1.58;;;;;;;10.43;91.10;97311.25;5045960;28;20493;-62
2022/10/14 05:20:19;;;;;;;2.80;1.75;;;;;;;10.58;90.98;97313.16;5045726;28;20061;-62
2022/10/14 05:22:46;;;;;;;5.85;2.67;;;;;;;10.55;90.58;97297.28;5045929;28;20198;-63
2022/10/14 05:25:13;;;;;;;7.18;3.15;;;;;;;10.50;89.04;97269.88;5044366;28;20059;-62
2022/10/14 05:27:41;;;;;;;9.93;4.07;;;;;;;10.88;87.91;97312.56;5044361;28;20057;-62
2022/10/14 05:30:09;;;;;;;13.63;3.90;;;;;;;10.89;88.32;97300.34;5044334;28;20053;-62
2022/10/14 05:32:36;;;;;;;7.15;3.55;;;;;;;11.19;87.01;97320.72;5044185;28;20175;-62
2022/10/14 05:35:04;;;;;;;8.68;4.25;;;;;;;11.31;86.33;97323.31;5043573;28;20508;-64
2022/10/14 05:37:31;;;;;;;10.77;5.68;;;;;;;11.37;85.81;97324.59;5045350;28;20056;-63
2022/10/14 05:39:59;;;;;;;17.40;5.22;;;;;;;11.45;84.55;97331.88;5045664;28;20502;-63
2022/10/14 05:42:28;;;;;;;8.23;4.40;;;;;;;11.46;84.65;97325.19;5045174;28;20056;-62
2022/10/14 05:44:55;;;;;;;10.45;3.83;;;;;;;11.48;84.35;97317.28;5044294;28;20049;-62
2022/10/14 05:47:23;;;;;;;6.22;4.05;;;;;;;11.35;85.18;97324.19;5045460;28;20061;-64
2022/10/14 05:49:50;;;;;;;8.90;4.22;;;;;;;11.64;84.01;97327.13;5045232;28;20144;-63
2022/10/14 05:52:17;;;;;;;9.88;4.35;;;;;;;11.77;83.36;97327.75;5044895;28;20057;-62
2022/10/14 05:54:45;;;;;;;7.60;4.10;;;;;;;11.25;83.71;97230.50;5043840;28;20080;-63
2022/10/14 05:57:12;;;;;;;8.48;3.88;;;;;;;11.13;82.94;97205.75;5037000;28;20053;-65
2022/10/14 05:59:39;;;;;;;7.50;3.50;;;;;;;12.03;82.82;97324.97;5042913;28;20079;-68
2022/10/14 06:02:08;;;;;;;6.10;2.75;;;;;;;11.95;82.20;97292.72;5034260;28;20053;-65
2022/10/14 06:04:39;;;;;;;7.07;2.78;;;;;;;11.92;82.11;97290.69;5044241;28;20466;-60
2022/10/14 06:07:10;;;;;;;6.60;3.28;;;;;;;12.17;82.01;97283.56;5035295;28;20057;-62
2022/10/14 06:09:38;;;;;;;9.25;3.50;;;;;;;12.66;81.42;97334.25;5023698;28;20053;-66
2022/10/14 06:12:06;;;;;;;8.30;3.92;;;;;;;12.99;78.92;97331.50;5030803;28;20048;-67
2022/10/14 06:14:34;;;;;;;9.57;4.28;;;;;;;12.88;78.33;97347.25;5034087;28;20085;-68
2022/10/14 06:17:01;;;;;;;9.60;4.65;;;;;;;13.27;76.92;97331.06;5023333;28;20059;-69
2022/10/14 06:19:29;;;;;;;7.60;3.83;;;;;;;12.43;76.57;97194.63;5023439;28;20049;-66
2022/10/14 06:21:57;;;;;;;9.02;4.75;;;;;;;12.73;75.99;97212.03;5024646;28;20145;-66
2022/10/14 06:24:27;;;;;;;12.27;4.68;;;;;;;13.53;75.87;97330.97;5026451;28;20532;-63
2022/10/14 06:26:56;;;;;;;9.75;3.90;;;;;;;13.29;75.40;97273.06;5023780;28;20072;-74
2022/10/14 06:29:30;;;;;;;10.63;3.78;;;;;;;13.35;75.32;97302.94;5024368;28;20592;-63
2022/10/14 06:31:57;;;;;;;6.82;2.80;;;;;;;12.34;77.65;97205.22;5024982;28;20049;-63
2022/10/14 06:34:24;;;;;;;6.32;2.38;;;;;;;13.55;76.20;97332.16;5024708;28;20053;-71
2022/10/14 06:36:55;;;;;;;8.07;3.13;;;;;;;13.70;76.29;97352.59;5023026;28;20057;-71
2022/10/14 06:39:27;;;;;;;6.47;3.05;;;;;;;12.85;76.91;97225.69;5023117;28;20057;-63
2022/10/14 06:41:55;;;;;;;16.25;2.65;;;;;;;12.96;78.27;97273.84;5022736;28;20906;-62
2022/10/14 06:44:22;;;;;;;8.82;2.72;;;;;;;13.00;80.54;97355.38;5030645;28;20068;-64
2022/10/14 06:46:50;;;;;;;4.97;2.70;;;;;;;12.59;79.28;97216.63;5043564;28;20049;-63
2022/10/14 06:49:17;;;;;;;7.65;2.63;;;;;;;13.57;77.99;97335.38;5043725;28;20053;-64
2022/10/14 06:51:44;;;;;;;6.60;1.80;;;;;;;13.59;77.06;97316.28;5043805;28;20056;-65
2022/10/14 06:54:15;;;;;;;5.45;1.88;;;;;;;14.06;75.40;97339.78;5044321;28;20051;-65
2022/10/14 06:56:42;;;;;;;4.30;1.73;;;;;;;13.39;73.17;97195.25;5042443;28;20438;-63
2022/10/14 06:59:09;;;;;;;3.47;1.60;;;;;;;14.56;71.38;97344.53;5044136;28;20045;-64
2022/10/14 07:01:37;;;;;;;6.55;1.90;;;;;;;14.71;68.91;97346.25;5042665;28;20488;-64
2022/10/14 07:04:05;;;;;;;7.60;2.22;;;;;;;14.57;67.77;97305.16;5044562;28;20053;-63
2022/10/14 07:06:32;;;;;;;6.57;2.17;;;;;;;14.79;67.53;97339.50;5043753;28;20120;-65
2022/10/14 07:09:00;;;;;;;7.47;2.30;;;;;;;14.63;65.60;97331.47;5043348;28;20048;-68
2022/10/14 07:11:27;;;;;;;22.92;3.65;;;;;;;14.89;65.06;97330.41;5044215;28;20060;-65
2022/10/14 07:13:55;;;;;;;5.30;1.98;;;;;;;14.56;65.65;97277.63;5044140;28;20044;-68
2022/10/14 07:16:22;;;;;;;5.70;2.17;;;;;;;15.24;65.65;97333.31;5043368;28;20583;-63
2022/10/14 07:18:50;;;;;;;2.13;1.92;;;;;;;15.14;62.29;97336.91;5044251;28;20076;-68
2022/10/14 07:21:17;;;;;;;3.60;2.20;;;;;;;15.22;61.06;97330.16;5043697;28;20134;-63
2022/10/14 07:23:44;;;;;;;5.70;1.77;;;;;;;14.97;61.07;97273.44;5042492;28;20467;-67
2022/10/14 07:26:11;;;;;;;4.93;1.83;;;;;;;15.05;60.64;97269.47;5043617;28;20674;-67
2022/10/14 07:28:39;;;;;;;2.72;1.77;;;;;;;15.80;60.48;97311.16;5043136;28;20150;-68
2022/10/14 07:31:10;;;;;;;2.83;1.60;;;;;;;16.05;59.88;97328.72;5043642;28;20045;-67
2022/10/14 07:33:39;;;;;;;1.65;1.50;;;;;;;16.05;60.15;97339.09;5043690;28;20068;-67
2022/10/14 07:36:09;;;;;;;2.08;1.58;;;;;;;15.83;60.96;97282.41;5042036;28;20135;-68
2022/10/14 07:38:38;;;;;;;3.58;1.70;;;;;;;16.23;59.86;97312.72;5043728;28;20785;-65
2022/10/14 07:41:15;;;;;;;3.95;1.55;;;;;;;15.95;60.72;97276.41;5042460;28;20900;-64
2022/10/14 07:43:44;;;;;;;3.80;2.40;;;;;;;15.85;63.83;97284.81;5043305;28;20532;-64
2022/10/14 07:46:15;;;;;;;5.05;1.38;;;;;;;16.02;66.69;97329.53;5023861;28;20192;-65
2022/10/14 07:48:45;;;;;;;4.90;1.42;;;;;;;15.86;67.34;97278.03;5063842;28;20484;-64
2022/10/14 07:51:24;;;;;;;1.70;1.60;;;;;;;15.56;67.59;97317.50;5051238;28;20049;-63
2022/10/14 07:53:57;;;;;;;3.75;1.60;;;;;;;15.79;67.39;97298.38;5041416;28;20143;-63
2022/10/14 07:56:26;;;;;;;4.43;1.65;;;;;;;16.11;66.54;97281.59;5042205;28;20085;-64
2022/10/14 07:58:57;;;;;;;2.78;1.45;;;;;;;16.41;65.26;97268.78;5045719;28;20063;-69
2022/10/14 08:01:24;;;;;;;7.55;1.50;;;;;;;15.87;64.54;97188.22;5047250;28;20533;-71
2022/10/14 08:03:52;;;;;;;7.90;1.63;;;;;;;16.21;66.15;97292.78;5046129;28;20041;-70
2022/10/14 08:06:21;;;;;;;3.22;1.40;;;;;;;15.38;68.24;97238.47;5029943;28;20057;-65
2022/10/14 08:08:48;;;;;;;2.35;1.60;;;;;;;16.33;66.65;97295.16;5025854;28;20053;-71
2022/10/14 08:11:22;;;;;;;2.55;1.40;;;;;;;16.73;64.54;97284.69;5026417;28;20424;-61
2022/10/14 08:13:52;;;;;;;5.15;2.65;;;;;;;16.63;63.97;97285.56;5029645;28;20053;-76
2022/10/14 08:16:23;;;;;;;5.25;1.80;;;;;;;16.05;65.32;97289.59;5026336;28;20081;-69
2022/10/14 08:18:51;;;;;;;1.55;1.42;;;;;;;15.17;65.16;97121.25;5042452;28;20097;-71
2022/10/14 08:21:20;;;;;;;6.18;1.80;;;;;;;15.99;65.05;97263.25;5033030;28;20527;-74
2022/10/14 08:23:48;;;;;;;4.50;2.10;;;;;;;16.57;63.15;97282.34;5026705;28;20084;-72
2022/10/14 08:26:22;;;;;;;5.78;1.98;;;;;;;16.60;62.42;97279.56;5030871;28;20065;-68
2022/10/14 08:28:50;;;;;;;8.77;2.25;;;;;;;16.28;63.06;97292.75;5027321;28;20081;-69
2022/10/14 08:31:18;;;;;;;2.17;1.55;;;;;;;16.70;62.13;97277.13;5030718;28;20095;-67
2022/10/14 08:33:47;;;;;;;1.98;1.25;;;;;;;15.95;61.31;97133.94;5025171;28;20061;-73
2022/10/14 08:36:16;;;;;;;5.60;1.88;;;;;;;16.95;60.62;97281.44;5026302;28;20080;-67
2022/10/14 08:38:50;;;;;;;8.55;3.35;;;;;;;16.77;60.23;97224.72;5026805;28;20053;-68
2022/10/14 08:42:02;;;;;;;2.55;1.98;;;;;;;16.20;58.82;97091.94;5032296;28;20052;-64
2022/10/14 08:44:49;;;;;;;;;;;;;;;16.66;59.61;97290.34;5040227;28;20057;-71
2022/10/14 08:47:22;;;;;;;3.78;2.47;;;;;;;15.50;59.95;97053.03;5027709;28;19931;-71
2022/10/14 08:50:02;;;;;;;2.42;1.30;;;;;;;16.91;57.92;97282.66;5028423;28;20489;-73
2022/10/14 08:52:52;;;;;;;4.43;1.27;;;;;;;17.20;56.61;97264.53;5028582;28;20057;-67
2022/10/14 08:55:35;;;;;;;2.30;1.55;;;;;;;17.31;55.09;97237.28;5042754;28;20037;-66
2022/10/14 08:58:22;;;;;;;2.35;1.40;;;;;;;17.35;54.85;97243.63;5046427;28;20071;-65
2022/10/14 09:01:00;;;;;;;4.30;1.20;;;;;;;17.45;53.57;97231.59;5028197;28;20114;-69
2022/10/14 09:03:32;;;;;;;3.45;2.35;;;;;;;16.96;53.95;97156.31;5030956;28;20115;-65
2022/10/14 09:06:04;;;;;;;5.28;1.98;;;;;;;17.15;53.66;97208.97;5025364;28;20081;-65
2022/10/14 09:08:42;;;;;;;4.03;1.80;;;;;;;17.31;54.83;97209.28;5024920;28;20057;-65
2022/10/14 09:11:19;;;;;;;3.30;1.55;;;;;;;17.87;54.25;97281.72;5025808;28;20057;-68
2022/10/14 09:13:54;;;;;;;3.10;1.63;;;;;;;17.31;53.68;97176.44;5040624;28;20080;-67
2022/10/14 09:16:28;;;;;;;3.30;1.70;;;;;;;16.64;53.76;97126.47;5036888;28;20793;-70
2022/10/14 09:19:01;;;;;;;5.72;1.42;;;;;;;16.75;55.77;97159.22;5030953;28;20048;-64
2022/10/14 09:21:31;;;;;;;3.10;1.38;;;;;;;17.79;55.14;97274.56;5029883;28;20073;-64
2022/10/14 09:24:30;;;;;;;2.08;1.20;;;;;;;17.89;54.30;97268.09;5033311;28;20132;-65
2022/10/14 09:27:20;;;;;;;6.38;1.52;;;;;;;17.43;54.06;97166.75;5025495;28;20215;-66
2022/10/14 09:29:58;;;;;;;6.95;2.58;;;;;;;18.14;53.50;97237.84;5025420;28;20532;-63
2022/10/14 09:32:38;;;;;;;4.68;1.10;;;;;;;18.25;53.16;97263.78;5040638;28;20527;-65
2022/10/14 09:35:16;;;;;;;2.90;1.73;;;;;;;18.10;53.59;97268.69;5039078;28;20068;-64
2022/10/14 09:37:43;;;;;;;1.98;1.30;;;;;;;18.12;53.95;97259.88;5033449;28;20062;-63
2022/10/14 09:40:15;;;;;;;4.97;1.42;;;;;;;18.32;52.65;97263.69;5028955;28;20129;-67
2022/10/14 09:42:50;;;;;;;1.98;1.30;;;;;;;18.09;52.84;97263.50;5025126;28;20054;-64
2022/10/14 09:45:21;;;;;;;2.55;1.52;;;;;;;18.08;52.79;97259.13;5023682;28;20610;-60
2022/10/14 09:48:02;;;;;;;1.98;1.27;;;;;;;18.07;52.28;97258.31;5024032;28;20190;-67
2022/10/14 09:50:47;;;;;;;2.60;1.80;;;;;;;18.14;52.03;97260.28;5027941;28;20499;-70
2022/10/14 09:53:37;;;;;;;1.70;1.27;;;;;;;18.02;51.08;97210.28;5027789;28;20056;-68
2022/10/14 09:56:07;;;;;;;2.65;1.33;;;;;;;17.51;52.11;97298.00;5032871;28;20045;-66
2022/10/14 09:58:47;;;;;;;3.10;1.50;;;;;;;18.46;50.77;97258.00;5024918;28;20061;-69
2022/10/14 10:01:18;;;;;;;4.95;1.48;;;;;;;18.25;50.50;97232.13;5022332;28;20139;-64
2022/10/14 10:03:54;;;;;;;1.52;1.30;;;;;;;18.42;49.74;97254.41;5033155;28;20084;-67
2022/10/14 10:06:25;;;;;;;2.75;1.40;;;;;;;18.37;49.09;97249.22;5035630;28;20447;-72
2022/10/14 10:08:58;;;;;;;3.85;1.42;;;;;;;18.34;48.23;97224.81;5041775;28;20049;-69
2022/10/14 10:11:36;;;;;;;3.88;1.30;;;;;;;18.23;48.17;97154.00;5027330;28;20055;-63
2022/10/14 10:14:21;;;;;;;7.70;1.85;;;;;;;18.88;47.77;97201.34;5027257;28;20145;-70
2022/10/14 10:16:50;;;;;;;1.67;1.20;;;;;;;19.06;47.15;97251.66;5042804;28;20484;-62
2022/10/14 10:19:31;;;;;;;2.17;1.30;;;;;;;18.70;46.92;97212.00;5044624;28;20052;-70
2022/10/14 10:22:21;;;;;;;3.28;1.30;;;;;;;19.18;46.28;97237.84;5043411;28;20036;-73
2022/10/14 10:25:02;;;;;;;2.83;1.30;;;;;;;19.26;46.12;97233.72;5042826;28;20381;-68
2022/10/14 10:27:35;;;;;;;5.35;1.27;;;;;;;19.43;45.67;97231.91;5043564;28;20110;-70
2022/10/14 10:30:13;;;;;;;2.33;1.20;;;;;;;19.58;45.35;97226.88;5042662;28;20715;-73
2022/10/14 10:33:02;;;;;;;1.88;1.30;;;;;;;19.75;43.88;97225.78;5042542;28;20126;-70
2022/10/14 10:36:06;;;;;;;3.78;1.98;;;;;;;19.84;43.75;97217.63;5043824;28;20499;-68
2022/10/14 10:38:44;;;;;;;6.07;1.27;;;;;;;19.93;43.83;97209.44;5042655;28;20083;-70
2022/10/14 10:41:21;;;;;;;3.15;1.55;;;;;;;18.80;44.16;97065.13;5043549;28;20607;-71
2022/10/14 10:44:13;;;;;;;1.45;1.33;;;;;;;19.75;43.24;97155.50;5043820;28;20507;-71
2022/10/14 10:47:12;;;;;;;1.98;1.25;;;;;;;19.88;42.79;97193.06;5024175;28;20048;-70
2022/10/14 10:50:29;;;;;;;4.32;1.67;;;;;;;19.73;41.55;97167.19;5022454;28;20447;-69
2022/10/14 10:53:02;;;;;;;8.05;2.35;;;;;;;19.39;39.91;97192.63;5023569;28;20049;-68
2022/10/14 10:55:48;;;;;;;1.90;1.45;;;;;;;19.67;40.38;97180.16;5021175;28;20128;-69
2022/10/14 10:58:34;;;;;;;20.98;1.88;;;;;;;19.82;41.54;97180.72;5025233;28;20447;-71
2022/10/14 11:01:36;;;;;;;2.00;1.65;;;;;;;18.38;40.37;96917.06;5024630;28;20132;-69
2022/10/14 11:04:03;;;;;;;3.28;1.35;;;;;;;20.09;41.36;97178.63;5022100;28;20057;-63
2022/10/14 11:12:47;;;;;;;3.83;1.70;;;;;;;19.60;38.79;97044.56;5039015;28;20053;-64
2022/10/14 11:15:30;;;;;;;3.50;1.65;;;;;;;19.56;38.67;97072.72;5030065;28;20102;-61
2022/10/14 11:18:02;;;;;;;3.40;2.55;;;;;;;20.29;39.01;97154.16;5037843;28;20460;-66
2022/10/14 11:20:36;;;;;;;2.97;1.67;;;;;;;20.27;38.83;97156.59;5029322;28;20065;-63
2022/10/14 11:23:12;;;;;;;2.92;1.67;;;;;;;20.73;38.21;97150.84;5051796;28;20052;-64
2022/10/14 11:25:54;;;;;;;3.53;1.40;;;;;;;20.80;37.12;97097.19;5061187;28;20067;-60
2022/10/14 11:28:47;;;;;;;7.40;1.75;;;;;;;20.99;37.10;97130.19;5029209;28;20504;-62
2022/10/14 11:31:44;;;;;;;4.15;1.50;;;;;;;20.38;37.55;97135.47;5031700;28;20053;-68
2022/10/14 11:34:27;;;;;;;7.65;1.77;;;;;;;20.98;37.79;97131.41;5026187;28;20111;-62
2022/10/14 11:37:14;;;;;;;8.02;1.90;;;;;;;21.19;37.01;97128.13;5026578;28;20065;-65
2022/10/14 11:40:05;;;;;;;2.70;1.77;;;;;;;21.13;36.61;97112.97;5028007;28;20085;-60
2022/10/14 11:43:05;;;;;;;3.35;1.98;;;;;;;20.88;37.36;97113.50;5036578;28;20061;-61
2022/10/14 11:45:41;;;;;;;3.30;1.67;;;;;;;21.00;36.96;97109.25;5047375;28;20060;-68
2022/10/14 11:48:31;;;;;;;6.07;1.77;;;;;;;21.11;37.05;97108.97;5048842;28;20095;-61
2022/10/14 11:51:06;;;;;;;3.35;2.13;;;;;;;20.89;36.90;97066.41;5041870;28;20404;-65
2022/10/14 11:54:04;;;;;;;1.58;1.48;;;;;;;21.09;37.47;97100.19;5027133;28;20127;-68
2022/10/14 11:56:46;;;;;;;2.65;1.70;;;;;;;21.03;38.48;97066.13;5037249;28;20084;-68
2022/10/14 11:59:38;;;;;;;11.15;2.60;;;;;;;21.30;37.42;97089.22;5046966;28;20091;-62
2022/10/14 12:02:34;;;;;;;2.20;2.00;;;;;;;21.23;37.98;97089.38;5038638;28;20084;-60
2022/10/14 12:05:24;;;;;;;3.63;1.95;;;;;;;21.63;37.39;97090.78;5034059;28;20581;-68
2022/10/14 12:08:16;;;;;;;4.28;1.85;;;;;;;21.73;37.86;97092.56;5047135;28;20057;-67